Decoded Metar for KMPV (MONTPELIER in VT, USA) (IATA:MPV) | Meteo·Mobile Aviation Weather
aviador You're here:

KMPV Decoded Metar

MONTPELIER in VT, USA
Report Time2018-12-14 10:51:00
UTC Time2018-12-14 11:54:24
Flight Rules mvfr MVFR
Wind200° at 05 kt
W.Decomp.*RWY 23: 4.9 kt HW 1.2 kt LCW
RWY 17: 3.5 kt HW 3.6 kt RCW
W.Rank200° ranks 10
Current wind is below 200° avg. (6.0)
Visibility9999 m
Phenomena:N/A
Clouds:Overcast 028 Hf
Expected CloudBase > 400 ft AGL from Temp-Dew spread
Ceiling2,800 ft
Temp-3°C (ISA -16)
Dew Point-4°C (93% RH)
AAT-7.3°C
QNH1030 hPa
Density Alt-1,322 ft
Elevation1,125 ft
Report Wrong Elevation
Raw Report
KMPV 141051Z AUTO 20005KT 10SM OVC028 M03/M04 A3043 RMK AO2 SLP325
T10281044=

Extra information for KMPV:More info

Metar Taf Metar & Taf Last 4 Metars F.Rules Stats Wind Profile Meteogram Temp Stats Airport Information Weather charts Add Link Nearby VenuesMetar ALERT Operation Metar Decoded Social comments

AIRNAV info for KMPV